F46

Ralph M Hall / Rockwall Municipal Airport

Rockwall, Texas, USA
METAR KF46 170015Z AUTO 19007KT 10SM CLR 15/04 A3021 RMK AO2 T01490036
Observed Flight Rules
Dec-17 @ 00:15 UTC (9 minutes ago) Visual Flight Rules
Wind Visibility Clouds
190° at 7 knots 10 miles
  • Clear skies
Temperatures Readings
Current 15°C / 59°F
Dewpoint 4°C / 39°F
Humidity 48%
Altimeter 30.21" Hg
Pressure 1023 hPa
Elevation 176
METAR KF46 170015Z AUTO 19007KT 10SM CLR 15/04 A3021 RMK AO2 T01490036
Observed Flight Rules
Dec-17 @ 00:15 UTC
(9 minutes ago)
VFR
Wind Visibility
190° at 7 knots 10 miles
Clouds
  • Clear skies
Temperature Dewpoint
15°C / 59°F 4°C / 39°F
Humidity Altimeter Pressure
48% 30.21" Hg 1023 hPa